sensor_id;sensor_type;location;lat;lon;timestamp;pressure;altitude;pressure_sealevel;temperature
78859;BMP280;68210;52.032;4.634;2023-04-23T00:00:07;100623.25;;;9.12
78859;BMP280;68210;52.032;4.634;2023-04-23T00:02:12;100613.81;;;9.07
78859;BMP280;68210;52.032;4.634;2023-04-23T00:04:15;100616.66;;;8.86
78859;BMP280;68210;52.032;4.634;2023-04-23T00:06:18;100615.66;;;8.91
78859;BMP280;68210;52.032;4.634;2023-04-23T00:08:19;100608.41;;;8.95
78859;BMP280;68210;52.032;4.634;2023-04-23T00:10:21;100612.06;;;8.87
78859;BMP280;68210;52.032;4.634;2023-04-23T00:12:23;100602.38;;;8.86
78859;BMP280;68210;52.032;4.634;2023-04-23T00:14:23;100604.84;;;8.91
78859;BMP280;68210;52.032;4.634;2023-04-23T00:16:24;100595.91;;;9.02
78859;BMP280;68210;52.032;4.634;2023-04-23T00:18:25;100603.00;;;9.07
78859;BMP280;68210;52.032;4.634;2023-04-23T00:20:25;100598.44;;;8.83
78859;BMP280;68210;52.032;4.634;2023-04-23T00:22:26;100615.94;;;8.74
78859;BMP280;68210;52.032;4.634;2023-04-23T00:24:26;100602.84;;;8.76
78859;BMP280;68210;52.032;4.634;2023-04-23T00:26:27;100602.59;;;8.93
78859;BMP280;68210;52.032;4.634;2023-04-23T00:28:27;100600.06;;;9.00
78859;BMP280;68210;52.032;4.634;2023-04-23T00:30:27;100595.81;;;8.99
78859;BMP280;68210;52.032;4.634;2023-04-23T00:32:28;100594.25;;;8.98
78859;BMP280;68210;52.032;4.634;2023-04-23T00:34:29;100588.22;;;9.04
78859;BMP280;68210;52.032;4.634;2023-04-23T00:36:29;100592.25;;;9.10
78859;BMP280;68210;52.032;4.634;2023-04-23T00:38:29;100589.50;;;8.95
78859;BMP280;68210;52.032;4.634;2023-04-23T00:40:30;100584.31;;;9.02
78859;BMP280;68210;52.032;4.634;2023-04-23T00:42:31;100579.09;;;9.09
78859;BMP280;68210;52.032;4.634;2023-04-23T00:44:31;100575.03;;;9.03
78859;BMP280;68210;52.032;4.634;2023-04-23T00:46:31;100574.56;;;9.12
78859;BMP280;68210;52.032;4.634;2023-04-23T00:48:33;100564.44;;;9.09
78859;BMP280;68210;52.032;4.634;2023-04-23T00:50:33;100560.59;;;9.10
78859;BMP280;68210;52.032;4.634;2023-04-23T00:52:34;100571.78;;;9.09
78859;BMP280;68210;52.032;4.634;2023-04-23T00:54:35;100565.63;;;8.97
78859;BMP280;68210;52.032;4.634;2023-04-23T00:56:35;100559.38;;;8.81
78859;BMP280;68210;52.032;4.634;2023-04-23T00:58:36;100569.94;;;8.86
78859;BMP280;68210;52.032;4.634;2023-04-23T01:00:41;100564.63;;;8.89
78859;BMP280;68210;52.032;4.634;2023-04-23T01:04:54;100560.59;;;8.83
78859;BMP280;68210;52.032;4.634;2023-04-23T01:06:55;100560.72;;;8.87
78859;BMP280;68210;52.032;4.634;2023-04-23T01:08:57;100560.28;;;8.85
78859;BMP280;68210;52.032;4.634;2023-04-23T01:10:58;100549.22;;;8.90
78859;BMP280;68210;52.032;4.634;2023-04-23T01:12:58;100552.47;;;8.95
78859;BMP280;68210;52.032;4.634;2023-04-23T01:14:59;100562.19;;;8.84
78859;BMP280;68210;52.032;4.634;2023-04-23T01:16:59;100559.81;;;8.83
78859;BMP280;68210;52.032;4.634;2023-04-23T01:19:01;100553.03;;;8.89
78859;BMP280;68210;52.032;4.634;2023-04-23T01:21:03;100554.88;;;8.85
78859;BMP280;68210;52.032;4.634;2023-04-23T01:23:04;100549.69;;;8.80
78859;BMP280;68210;52.032;4.634;2023-04-23T01:25:05;100549.84;;;8.99
78859;BMP280;68210;52.032;4.634;2023-04-23T01:27:08;100540.16;;;8.98
78859;BMP280;68210;52.032;4.634;2023-04-23T01:29:09;100537.72;;;8.93
78859;BMP280;68210;52.032;4.634;2023-04-23T01:31:10;100537.03;;;8.96
78859;BMP280;68210;52.032;4.634;2023-04-23T01:33:13;100540.09;;;9.09
78859;BMP280;68210;52.032;4.634;2023-04-23T01:35:14;100541.03;;;9.02
78859;BMP280;68210;52.032;4.634;2023-04-23T01:37:15;100532.31;;;8.93
78859;BMP280;68210;52.032;4.634;2023-04-23T01:39:16;100534.50;;;9.03
78859;BMP280;68210;52.032;4.634;2023-04-23T01:41:17;100538.66;;;9.00
78859;BMP280;68210;52.032;4.634;2023-04-23T01:43:17;100534.66;;;8.94
78859;BMP280;68210;52.032;4.634;2023-04-23T01:45:19;100532.72;;;8.95
78859;BMP280;68210;52.032;4.634;2023-04-23T01:47:20;100530.03;;;8.95
78859;BMP280;68210;52.032;4.634;2023-04-23T01:49:20;100527.38;;;8.83
78859;BMP280;68210;52.032;4.634;2023-04-23T01:51:20;100522.06;;;8.86
78859;BMP280;68210;52.032;4.634;2023-04-23T01:53:22;100518.66;;;8.89
78859;BMP280;68210;52.032;4.634;2023-04-23T01:55:23;100521.09;;;8.79
78859;BMP280;68210;52.032;4.634;2023-04-23T01:57:23;100529.63;;;8.81
78859;BMP280;68210;52.032;4.634;2023-04-23T01:59:25;100527.69;;;8.93
78859;BMP280;68210;52.032;4.634;2023-04-23T02:01:40;100526.66;;;8.98
78859;BMP280;68210;52.032;4.634;2023-04-23T02:03:41;100527.84;;;9.00
78859;BMP280;68210;52.032;4.634;2023-04-23T02:05:43;100530.22;;;9.02
78859;BMP280;68210;52.032;4.634;2023-04-23T02:07:48;100523.66;;;8.87
78859;BMP280;68210;52.032;4.634;2023-04-23T02:09:49;100528.47;;;8.94
78859;BMP280;68210;52.032;4.634;2023-04-23T02:11:49;100523.84;;;8.94
78859;BMP280;68210;52.032;4.634;2023-04-23T02:13:50;100516.94;;;8.81
78859;BMP280;68210;52.032;4.634;2023-04-23T02:15:50;100514.16;;;8.93
78859;BMP280;68210;52.032;4.634;2023-04-23T02:17:50;100516.47;;;9.07
78859;BMP280;68210;52.032;4.634;2023-04-23T02:19:51;100517.69;;;9.09
78859;BMP280;68210;52.032;4.634;2023-04-23T02:21:54;100523.09;;;9.09
78859;BMP280;68210;52.032;4.634;2023-04-23T02:23:54;100508.53;;;9.13
78859;BMP280;68210;52.032;4.634;2023-04-23T02:25:55;100505.56;;;9.18
78859;BMP280;68210;52.032;4.634;2023-04-23T02:27:55;100507.31;;;9.11
78859;BMP280;68210;52.032;4.634;2023-04-23T02:29:56;100509.66;;;9.12
78859;BMP280;68210;52.032;4.634;2023-04-23T02:31:57;100510.97;;;9.18
78859;BMP280;68210;52.032;4.634;2023-04-23T02:33:57;100505.56;;;9.18
78859;BMP280;68210;52.032;4.634;2023-04-23T02:35:57;100505.03;;;9.13
78859;BMP280;68210;52.032;4.634;2023-04-23T02:37:58;100508.97;;;9.15
78859;BMP280;68210;52.032;4.634;2023-04-23T02:39:58;100508.09;;;9.11
78859;BMP280;68210;52.032;4.634;2023-04-23T02:41:59;100514.81;;;9.17
78859;BMP280;68210;52.032;4.634;2023-04-23T02:44:01;100513.88;;;9.25
78859;BMP280;68210;52.032;4.634;2023-04-23T02:46:01;100517.44;;;9.29
78859;BMP280;68210;52.032;4.634;2023-04-23T02:48:07;100505.31;;;9.23
78859;BMP280;68210;52.032;4.634;2023-04-23T02:50:07;100519.78;;;9.15
78859;BMP280;68210;52.032;4.634;2023-04-23T02:52:08;100511.69;;;9.31
78859;BMP280;68210;52.032;4.634;2023-04-23T02:54:09;100513.88;;;9.25
78859;BMP280;68210;52.032;4.634;2023-04-23T02:56:10;100517.38;;;9.41
78859;BMP280;68210;52.032;4.634;2023-04-23T02:58:10;100509.63;;;9.55
78859;BMP280;68210;52.032;4.634;2023-04-23T03:00:12;100506.53;;;9.56
78859;BMP280;68210;52.032;4.634;2023-04-23T03:02:14;100509.00;;;9.61
78859;BMP280;68210;52.032;4.634;2023-04-23T03:04:14;100507.50;;;9.64
78859;BMP280;68210;52.032;4.634;2023-04-23T03:06:15;100504.88;;;9.67
78859;BMP280;68210;52.032;4.634;2023-04-23T03:08:15;100508.91;;;9.73
78859;BMP280;68210;52.032;4.634;2023-04-23T03:10:16;100505.13;;;9.77
78859;BMP280;68210;52.032;4.634;2023-04-23T03:12:16;100502.63;;;9.69
78859;BMP280;68210;52.032;4.634;2023-04-23T03:14:17;100495.72;;;9.71
78859;BMP280;68210;52.032;4.634;2023-04-23T03:16:17;100485.06;;;9.48
78859;BMP280;68210;52.032;4.634;2023-04-23T03:18:19;100496.78;;;9.52
78859;BMP280;68210;52.032;4.634;2023-04-23T03:20:20;100497.13;;;9.66
78859;BMP280;68210;52.032;4.634;2023-04-23T03:22:20;100494.75;;;9.64
78859;BMP280;68210;52.032;4.634;2023-04-23T03:24:21;100490.94;;;9.65
78859;BMP280;68210;52.032;4.634;2023-04-23T03:26:21;100504.81;;;9.64
78859;BMP280;68210;52.032;4.634;2023-04-23T03:28:22;100498.25;;;9.49
78859;BMP280;68210;52.032;4.634;2023-04-23T03:30:23;100494.69;;;9.45
78859;BMP280;68210;52.032;4.634;2023-04-23T03:32:23;100485.06;;;9.48
78859;BMP280;68210;52.032;4.634;2023-04-23T03:34:23;100494.22;;;9.59
78859;BMP280;68210;52.032;4.634;2023-04-23T03:36:24;100481.25;;;9.49
78859;BMP280;68210;52.032;4.634;2023-04-23T03:38:24;100489.72;;;9.63
78859;BMP280;68210;52.032;4.634;2023-04-23T03:40:25;100489.53;;;9.71
78859;BMP280;68210;52.032;4.634;2023-04-23T03:42:25;100481.91;;;9.76
78859;BMP280;68210;52.032;4.634;2023-04-23T03:44:25;100484.75;;;9.65
78859;BMP280;68210;52.032;4.634;2023-04-23T03:46:26;100484.47;;;9.54
78859;BMP280;68210;52.032;4.634;2023-04-23T03:48:26;100481.66;;;9.51
78859;BMP280;68210;52.032;4.634;2023-04-23T03:50:27;100476.09;;;9.59
78859;BMP280;68210;52.032;4.634;2023-04-23T03:52:28;100480.97;;;9.69
78859;BMP280;68210;52.032;4.634;2023-04-23T03:54:29;100486.56;;;9.76
78859;BMP280;68210;52.032;4.634;2023-04-23T03:56:29;100476.25;;;9.66
78859;BMP280;68210;52.032;4.634;2023-04-23T03:58:30;100485.41;;;9.77
78859;BMP280;68210;52.032;4.634;2023-04-23T04:00:30;100485.41;;;9.77
78859;BMP280;68210;52.032;4.634;2023-04-23T04:02:31;100490.16;;;9.65
78859;BMP280;68210;52.032;4.634;2023-04-23T04:04:31;100485.78;;;9.75
78859;BMP280;68210;52.032;4.634;2023-04-23T04:06:32;100481.66;;;9.81
78859;BMP280;68210;52.032;4.634;2023-04-23T04:08:32;100487.16;;;9.69
78859;BMP280;68210;52.032;4.634;2023-04-23T04:10:33;100485.84;;;9.64
78859;BMP280;68210;52.032;4.634;2023-04-23T04:12:33;100488.81;;;9.74
78859;BMP280;68210;52.032;4.634;2023-04-23T04:14:34;100491.19;;;9.75
78859;BMP280;68210;52.032;4.634;2023-04-23T04:16:34;100488.56;;;9.79
78859;BMP280;68210;52.032;4.634;2023-04-23T04:18:35;100483.22;;;9.82
78859;BMP280;68210;52.032;4.634;2023-04-23T04:20:35;100492.13;;;9.83
78859;BMP280;68210;52.032;4.634;2023-04-23T04:22:36;100491.00;;;9.84
78859;BMP280;68210;52.032;4.634;2023-04-23T04:24:36;100492.81;;;9.80
78859;BMP280;68210;52.032;4.634;2023-04-23T04:26:38;100481.72;;;9.85
78859;BMP280;68210;52.032;4.634;2023-04-23T04:28:39;100483.28;;;9.86
78859;BMP280;68210;52.032;4.634;2023-04-23T04:30:39;100472.81;;;9.84
78859;BMP280;68210;52.032;4.634;2023-04-23T04:32:41;100472.13;;;9.87
78859;BMP280;68210;52.032;4.634;2023-04-23T04:34:44;100474.94;;;9.91
78859;BMP280;68210;52.032;4.634;2023-04-23T04:36:46;100480.97;;;9.69
78859;BMP280;68210;52.032;4.634;2023-04-23T04:38:46;100477.22;;;9.73
78859;BMP280;68210;52.032;4.634;2023-04-23T04:40:47;100472.91;;;9.72
78859;BMP280;68210;52.032;4.634;2023-04-23T04:42:50;100484.19;;;9.74
78859;BMP280;68210;52.032;4.634;2023-04-23T04:44:52;100479.13;;;9.73
78859;BMP280;68210;52.032;4.634;2023-04-23T04:46:52;100478.44;;;9.61
78859;BMP280;68210;52.032;4.634;2023-04-23T04:48:52;100478.97;;;9.66
78859;BMP280;68210;52.032;4.634;2023-04-23T04:50:53;100475.13;;;9.52
78859;BMP280;68210;52.032;4.634;2023-04-23T04:52:53;100473.56;;;9.51
78859;BMP280;68210;52.032;4.634;2023-04-23T04:54:54;100479.31;;;9.65
78859;BMP280;68210;52.032;4.634;2023-04-23T04:56:55;100476.31;;;9.69
78859;BMP280;68210;52.032;4.634;2023-04-23T04:58:55;100483.06;;;9.60
78859;BMP280;68210;52.032;4.634;2023-04-23T05:00:57;100478.56;;;9.49
78859;BMP280;68210;52.032;4.634;2023-04-23T05:02:58;100478.69;;;9.56
78859;BMP280;68210;52.032;4.634;2023-04-23T05:04:59;100484.75;;;9.65
78859;BMP280;68210;52.032;4.634;2023-04-23T05:06:59;100486.13;;;9.59
78859;BMP280;68210;52.032;4.634;2023-04-23T05:08:59;100490.16;;;9.65
78859;BMP280;68210;52.032;4.634;2023-04-23T05:11:00;100493.59;;;9.80
78859;BMP280;68210;52.032;4.634;2023-04-23T05:13:01;100489.34;;;9.95
78859;BMP280;68210;52.032;4.634;2023-04-23T05:15:02;100497.91;;;9.81
78859;BMP280;68210;52.032;4.634;2023-04-23T05:17:03;100502.19;;;9.98
78859;BMP280;68210;52.032;4.634;2023-04-23T05:19:04;100488.00;;;10.04
78859;BMP280;68210;52.032;4.634;2023-04-23T05:21:04;100481.78;;;10.19
78859;BMP280;68210;52.032;4.634;2023-04-23T05:23:05;100485.00;;;10.24
78859;BMP280;68210;52.032;4.634;2023-04-23T05:25:06;100483.00;;;10.40
78859;BMP280;68210;52.032;4.634;2023-04-23T05:27:07;100482.91;;;10.18
78859;BMP280;68210;52.032;4.634;2023-04-23T05:29:07;100489.94;;;10.37
78859;BMP280;68210;52.032;4.634;2023-04-23T05:31:08;100479.66;;;10.46
78859;BMP280;68210;52.032;4.634;2023-04-23T05:33:08;100479.44;;;10.36
78859;BMP280;68210;52.032;4.634;2023-04-23T05:35:09;100481.06;;;10.22
78859;BMP280;68210;52.032;4.634;2023-04-23T05:37:10;100489.66;;;10.42
78859;BMP280;68210;52.032;4.634;2023-04-23T05:39:10;100482.50;;;10.34
78859;BMP280;68210;52.032;4.634;2023-04-23T05:41:11;100476.59;;;10.48
78859;BMP280;68210;52.032;4.634;2023-04-23T05:43:11;100476.50;;;10.63
78859;BMP280;68210;52.032;4.634;2023-04-23T05:45:12;100481.47;;;10.80
78859;BMP280;68210;52.032;4.634;2023-04-23T05:47:13;100480.63;;;10.94
78859;BMP280;68210;52.032;4.634;2023-04-23T05:49:13;100477.63;;;10.99
78859;BMP280;68210;52.032;4.634;2023-04-23T05:51:13;100466.28;;;11.16
78859;BMP280;68210;52.032;4.634;2023-04-23T05:53:14;100467.75;;;11.32
78859;BMP280;68210;52.032;4.634;2023-04-23T05:55:14;100463.06;;;11.52
78859;BMP280;68210;52.032;4.634;2023-04-23T05:57:15;100459.44;;;11.66
78859;BMP280;68210;52.032;4.634;2023-04-23T05:59:15;100471.53;;;11.28
78859;BMP280;68210;52.032;4.634;2023-04-23T06:01:16;100463.00;;;11.48
78859;BMP280;68210;52.032;4.634;2023-04-23T06:03:16;100464.91;;;11.70
78859;BMP280;68210;52.032;4.634;2023-04-23T06:05:17;100463.72;;;11.93
78859;BMP280;68210;52.032;4.634;2023-04-23T06:07:17;100474.16;;;12.16
78859;BMP280;68210;52.032;4.634;2023-04-23T06:09:18;100459.59;;;12.31
78859;BMP280;68210;52.032;4.634;2023-04-23T06:11:19;100462.00;;;12.36
78859;BMP280;68210;52.032;4.634;2023-04-23T06:13:20;100456.75;;;12.50
78859;BMP280;68210;52.032;4.634;2023-04-23T06:15:20;100455.81;;;12.72
78859;BMP280;68210;52.032;4.634;2023-04-23T06:17:25;100458.69;;;12.82
78859;BMP280;68210;52.032;4.634;2023-04-23T06:19:26;100450.03;;;12.73
78859;BMP280;68210;52.032;4.634;2023-04-23T06:21:27;100446.84;;;13.00
78859;BMP280;68210;52.032;4.634;2023-04-23T06:23:27;100448.28;;;13.27
78859;BMP280;68210;52.032;4.634;2023-04-23T06:25:27;100440.00;;;13.63
78859;BMP280;68210;52.032;4.634;2023-04-23T06:27:28;100442.56;;;13.95
78859;BMP280;68210;52.032;4.634;2023-04-23T06:29:28;100429.13;;;14.19
78859;BMP280;68210;52.032;4.634;2023-04-23T06:31:29;100430.34;;;14.32
78859;BMP280;68210;52.032;4.634;2023-04-23T06:33:30;100432.31;;;14.35
78859;BMP280;68210;52.032;4.634;2023-04-23T06:35:30;100428.84;;;14.45
78859;BMP280;68210;52.032;4.634;2023-04-23T06:37:31;100430.44;;;14.53
78859;BMP280;68210;52.032;4.634;2023-04-23T06:39:31;100425.44;;;14.79
78859;BMP280;68210;52.032;4.634;2023-04-23T06:41:31;100423.19;;;14.98
78859;BMP280;68210;52.032;4.634;2023-04-23T06:43:32;100422.06;;;15.26
78859;BMP280;68210;52.032;4.634;2023-04-23T06:45:33;100421.22;;;15.05
78859;BMP280;68210;52.032;4.634;2023-04-23T06:47:34;100424.81;;;15.47
78859;BMP280;68210;52.032;4.634;2023-04-23T06:49:34;100421.28;;;15.71
78859;BMP280;68210;52.032;4.634;2023-04-23T06:51:35;100409.53;;;15.94
78859;BMP280;68210;52.032;4.634;2023-04-23T06:53:35;100419.06;;;16.61
78859;BMP280;68210;52.032;4.634;2023-04-23T06:55:36;100408.09;;;16.68
78859;BMP280;68210;52.032;4.634;2023-04-23T06:57:36;100400.78;;;16.44
78859;BMP280;68210;52.032;4.634;2023-04-23T06:59:36;100412.50;;;16.41
78859;BMP280;68210;52.032;4.634;2023-04-23T07:01:37;100408.19;;;16.47
78859;BMP280;68210;52.032;4.634;2023-04-23T07:03:37;100400.78;;;16.41
78859;BMP280;68210;52.032;4.634;2023-04-23T07:05:38;100406.28;;;16.41
78859;BMP280;68210;52.032;4.634;2023-04-23T07:07:38;100403.91;;;16.46
78859;BMP280;68210;52.032;4.634;2023-04-23T07:09:39;100399.03;;;16.81
78859;BMP280;68210;52.032;4.634;2023-04-23T07:11:40;100399.59;;;17.09
78859;BMP280;68210;52.032;4.634;2023-04-23T07:13:41;100399.31;;;17.50
78859;BMP280;68210;52.032;4.634;2023-04-23T07:15:42;100408.88;;;17.32
78859;BMP280;68210;52.032;4.634;2023-04-23T07:17:42;100397.88;;;17.35
78859;BMP280;68210;52.032;4.634;2023-04-23T07:19:43;100398.06;;;17.11
78859;BMP280;68210;52.032;4.634;2023-04-23T07:21:43;100397.03;;;17.42
78859;BMP280;68210;52.032;4.634;2023-04-23T07:23:43;100389.44;;;17.60
78859;BMP280;68210;52.032;4.634;2023-04-23T07:25:44;100388.56;;;18.09
78859;BMP280;68210;52.032;4.634;2023-04-23T07:27:44;100388.84;;;18.18
78859;BMP280;68210;52.032;4.634;2023-04-23T07:29:45;100391.41;;;18.65
78859;BMP280;68210;52.032;4.634;2023-04-23T07:31:45;100379.41;;;18.52
78859;BMP280;68210;52.032;4.634;2023-04-23T07:33:46;100380.84;;;19.16
78859;BMP280;68210;52.032;4.634;2023-04-23T07:35:46;100373.59;;;19.02
78859;BMP280;68210;52.032;4.634;2023-04-23T07:37:47;100373.50;;;19.09
78859;BMP280;68210;52.032;4.634;2023-04-23T07:39:52;100373.72;;;19.18
78859;BMP280;68210;52.032;4.634;2023-04-23T07:41:53;100369.72;;;19.00
78859;BMP280;68210;52.032;4.634;2023-04-23T07:43:53;100373.84;;;19.11
78859;BMP280;68210;52.032;4.634;2023-04-23T07:45:54;100374.16;;;19.17
78859;BMP280;68210;52.032;4.634;2023-04-23T07:47:54;100372.78;;;19.05
78859;BMP280;68210;52.032;4.634;2023-04-23T07:49:55;100367.13;;;18.86
78859;BMP280;68210;52.032;4.634;2023-04-23T07:51:55;100382.59;;;18.77
78859;BMP280;68210;52.032;4.634;2023-04-23T07:53:56;100372.19;;;19.40
78859;BMP280;68210;52.032;4.634;2023-04-23T07:55:57;100376.63;;;19.79
78859;BMP280;68210;52.032;4.634;2023-04-23T07:57:58;100371.00;;;19.86
78859;BMP280;68210;52.032;4.634;2023-04-23T07:59:58;100381.09;;;19.47
78859;BMP280;68210;52.032;4.634;2023-04-23T08:01:59;100363.25;;;20.58
78859;BMP280;68210;52.032;4.634;2023-04-23T08:03:59;100354.22;;;20.00
78859;BMP280;68210;52.032;4.634;2023-04-23T08:05:59;100360.00;;;20.63
78859;BMP280;68210;52.032;4.634;2023-04-23T08:08:00;100364.25;;;20.48
78859;BMP280;68210;52.032;4.634;2023-04-23T08:10:00;100349.56;;;20.16
78859;BMP280;68210;52.032;4.634;2023-04-23T08:12:05;100350.41;;;21.02
78859;BMP280;68210;52.032;4.634;2023-04-23T08:14:05;100347.34;;;20.65
78859;BMP280;68210;52.032;4.634;2023-04-23T08:16:05;100340.94;;;20.33
78859;BMP280;68210;52.032;4.634;2023-04-23T08:18:06;100350.88;;;20.46
78859;BMP280;68210;52.032;4.634;2023-04-23T08:20:07;100352.50;;;20.63
78859;BMP280;68210;52.032;4.634;2023-04-23T08:22:07;100345.50;;;20.05
78859;BMP280;68210;52.032;4.634;2023-04-23T08:24:08;100347.53;;;19.36
78859;BMP280;68210;52.032;4.634;2023-04-23T08:26:09;100347.44;;;19.40
78859;BMP280;68210;52.032;4.634;2023-04-23T08:28:09;100347.09;;;19.15
78859;BMP280;68210;52.032;4.634;2023-04-23T08:30:10;100350.91;;;19.21
78859;BMP280;68210;52.032;4.634;2023-04-23T08:32:10;100353.66;;;18.98
78859;BMP280;68210;52.032;4.634;2023-04-23T08:34:12;100345.72;;;19.04
78859;BMP280;68210;52.032;4.634;2023-04-23T08:36:14;100347.13;;;18.86
78859;BMP280;68210;52.032;4.634;2023-04-23T08:38:14;100345.03;;;18.70
78859;BMP280;68210;52.032;4.634;2023-04-23T08:40:15;100344.66;;;18.68
78859;BMP280;68210;52.032;4.634;2023-04-23T08:44:45;100354.06;;;18.97
78859;BMP280;68210;52.032;4.634;2023-04-23T08:46:47;100355.53;;;19.27
78859;BMP280;68210;52.032;4.634;2023-04-23T08:48:51;100357.78;;;19.55
78859;BMP280;68210;52.032;4.634;2023-04-23T08:50:52;100353.75;;;19.40
78859;BMP280;68210;52.032;4.634;2023-04-23T08:52:52;100361.50;;;19.22
78859;BMP280;68210;52.032;4.634;2023-04-23T08:54:58;100359.97;;;19.21
78859;BMP280;68210;52.032;4.634;2023-04-23T08:56:58;100359.53;;;19.23
78859;BMP280;68210;52.032;4.634;2023-04-23T08:58:59;100343.38;;;19.70
78859;BMP280;68210;52.032;4.634;2023-04-23T09:01:03;100362.28;;;19.91
78859;BMP280;68210;52.032;4.634;2023-04-23T09:03:04;100363.03;;;19.91
78859;BMP280;68210;52.032;4.634;2023-04-23T09:05:05;100344.06;;;19.97
78859;BMP280;68210;52.032;4.634;2023-04-23T09:07:06;100351.28;;;19.91
78859;BMP280;68210;52.032;4.634;2023-04-23T09:09:11;100356.28;;;19.73
78859;BMP280;68210;52.032;4.634;2023-04-23T09:11:14;100364.19;;;19.26
78859;BMP280;68210;52.032;4.634;2023-04-23T09:13:16;100361.09;;;19.24
78859;BMP280;68210;52.032;4.634;2023-04-23T09:15:16;100355.47;;;19.53
78859;BMP280;68210;52.032;4.634;2023-04-23T09:17:17;100353.84;;;19.79
78859;BMP280;68210;52.032;4.634;2023-04-23T09:19:18;100335.13;;;19.70
78859;BMP280;68210;52.032;4.634;2023-04-23T09:21:19;100341.88;;;20.08
78859;BMP280;68210;52.032;4.634;2023-04-23T09:23:20;100345.53;;;19.37
78859;BMP280;68210;52.032;4.634;2023-04-23T09:25:22;100343.38;;;19.48
78859;BMP280;68210;52.032;4.634;2023-04-23T09:27:23;100337.03;;;19.50
78859;BMP280;68210;52.032;4.634;2023-04-23T09:29:25;100339.34;;;18.81
78859;BMP280;68210;52.032;4.634;2023-04-23T09:31:26;100343.56;;;18.88
78859;BMP280;68210;52.032;4.634;2023-04-23T09:33:27;100342.69;;;18.69
78859;BMP280;68210;52.032;4.634;2023-04-23T09:35:27;100347.69;;;18.48
78859;BMP280;68210;52.032;4.634;2023-04-23T09:37:28;100343.88;;;18.68
78859;BMP280;68210;52.032;4.634;2023-04-23T09:39:28;100350.53;;;18.41
78859;BMP280;68210;52.032;4.634;2023-04-23T09:41:29;100339.69;;;18.60
78859;BMP280;68210;52.032;4.634;2023-04-23T09:43:30;100343.88;;;18.68
78859;BMP280;68210;52.032;4.634;2023-04-23T09:45:30;100334.50;;;18.65
78859;BMP280;68210;52.032;4.634;2023-04-23T09:47:38;100341.19;;;19.17
78859;BMP280;68210;52.032;4.634;2023-04-23T09:49:48;100345.06;;;19.19
78859;BMP280;68210;52.032;4.634;2023-04-23T09:51:49;100337.16;;;18.98
78859;BMP280;68210;52.032;4.634;2023-04-23T09:53:50;100336.66;;;18.22
78859;BMP280;68210;52.032;4.634;2023-04-23T09:55:51;100339.59;;;18.37
78859;BMP280;68210;52.032;4.634;2023-04-23T09:57:52;100331.59;;;18.20
78859;BMP280;68210;52.032;4.634;2023-04-23T09:59:55;100327.16;;;17.60
78859;BMP280;68210;52.032;4.634;2023-04-23T10:02:01;100319.78;;;17.90
78859;BMP280;68210;52.032;4.634;2023-04-23T10:04:01;100328.16;;;18.13
78859;BMP280;68210;52.032;4.634;2023-04-23T10:06:02;100321.94;;;18.09
78859;BMP280;68210;52.032;4.634;2023-04-23T10:08:04;100318.66;;;17.84
78859;BMP280;68210;52.032;4.634;2023-04-23T10:10:05;100313.66;;;17.79
78859;BMP280;68210;52.032;4.634;2023-04-23T10:12:06;100325.19;;;17.97
78859;BMP280;68210;52.032;4.634;2023-04-23T10:14:09;100316.56;;;17.95
78859;BMP280;68210;52.032;4.634;2023-04-23T10:16:10;100315.38;;;17.66
78859;BMP280;68210;52.032;4.634;2023-04-23T10:18:12;100324.72;;;17.69
78859;BMP280;68210;52.032;4.634;2023-04-23T10:20:13;100310.16;;;17.75
78859;BMP280;68210;52.032;4.634;2023-04-23T10:22:15;100301.81;;;17.86
78859;BMP280;68210;52.032;4.634;2023-04-23T10:24:18;100310.75;;;17.93
78859;BMP280;68210;52.032;4.634;2023-04-23T10:26:21;100314.75;;;17.85
78859;BMP280;68210;52.032;4.634;2023-04-23T10:28:25;100306.81;;;17.94
78859;BMP280;68210;52.032;4.634;2023-04-23T10:30:28;100304.22;;;17.80
78859;BMP280;68210;52.032;4.634;2023-04-23T10:32:29;100304.31;;;17.33
78859;BMP280;68210;52.032;4.634;2023-04-23T10:34:32;100299.75;;;17.24
78859;BMP280;68210;52.032;4.634;2023-04-23T10:36:32;100299.03;;;17.16
78859;BMP280;68210;52.032;4.634;2023-04-23T10:38:33;100290.75;;;17.23
78859;BMP280;68210;52.032;4.634;2023-04-23T10:40:36;100298.25;;;17.09
78859;BMP280;68210;52.032;4.634;2023-04-23T10:42:42;100280.97;;;17.22
78859;BMP280;68210;52.032;4.634;2023-04-23T10:44:42;100295.41;;;17.26
78859;BMP280;68210;52.032;4.634;2023-04-23T10:46:53;100286.84;;;17.21
78859;BMP280;68210;52.032;4.634;2023-04-23T10:49:12;100257.88;;;17.20
78859;BMP280;68210;52.032;4.634;2023-04-23T10:51:13;100280.59;;;17.20
78859;BMP280;68210;52.032;4.634;2023-04-23T10:53:19;100279.22;;;17.38
78859;BMP280;68210;52.032;4.634;2023-04-23T10:55:27;100261.50;;;17.50
78859;BMP280;68210;52.032;4.634;2023-04-23T10:57:28;100260.03;;;17.42
78859;BMP280;68210;52.032;4.634;2023-04-23T10:59:30;100262.78;;;17.42
78859;BMP280;68210;52.032;4.634;2023-04-23T11:01:31;100269.16;;;17.65
78859;BMP280;68210;52.032;4.634;2023-04-23T11:05:35;100255.88;;;17.64
78859;BMP280;68210;52.032;4.634;2023-04-23T11:07:35;100258.84;;;17.43
78859;BMP280;68210;52.032;4.634;2023-04-23T11:09:40;100248.47;;;17.24
78859;BMP280;68210;52.032;4.634;2023-04-23T11:11:42;100246.66;;;17.07
78859;BMP280;68210;52.032;4.634;2023-04-23T11:13:51;100253.38;;;17.00
78859;BMP280;68210;52.032;4.634;2023-04-23T11:16:14;100245.63;;;16.88
78859;BMP280;68210;52.032;4.634;2023-04-23T11:18:15;100237.06;;;16.86
78859;BMP280;68210;52.032;4.634;2023-04-23T11:20:19;100241.22;;;17.01
78859;BMP280;68210;52.032;4.634;2023-04-23T11:22:21;100242.34;;;17.06
78859;BMP280;68210;52.032;4.634;2023-04-23T11:24:30;100230.31;;;16.97
78859;BMP280;68210;52.032;4.634;2023-04-23T11:26:30;100223.84;;;16.77
78859;BMP280;68210;52.032;4.634;2023-04-23T11:28:32;100232.72;;;16.92
78859;BMP280;68210;52.032;4.634;2023-04-23T11:30:33;100227.66;;;16.87
78859;BMP280;68210;52.032;4.634;2023-04-23T11:32:34;100223.25;;;17.00
78859;BMP280;68210;52.032;4.634;2023-04-23T11:34:45;100213.00;;;17.10
78859;BMP280;68210;52.032;4.634;2023-04-23T11:36:47;100220.41;;;17.13
78859;BMP280;68210;52.032;4.634;2023-04-23T11:38:48;100214.72;;;17.34